Time;durP1;ratioP1;P1;durP2;ratioP2;P2;SDS_P1;SDS_P2;PMS_P1;PMS_P2;Temp;Humidity;BMP_temperature;BMP_pressure;BME280_temperature;BME280_humidity;BME280_pressure;Samples;Min_cycle;Max_cycle;Signal;HPM_P1;HPM_P2
2023/06/16 00:01:36;;;;;;;4.72;3.90;;;18.10;47.60;;;20.13;38.30;97648.63;5080086;28;20439;-52
2023/06/16 00:04:04;;;;;;;4.43;3.70;;;18.10;48.50;;;20.11;38.16;97638.03;5059979;28;20040;-55
2023/06/16 00:06:32;;;;;;;4.88;3.75;;;18.10;47.70;;;20.10;38.02;97638.25;5079115;28;20044;-54
2023/06/16 00:09:00;;;;;;;3.78;3.38;;;18.10;47.50;;;20.06;38.09;97644.13;5082307;28;20044;-54
2023/06/16 00:11:29;;;;;;;4.55;4.03;;;18.10;47.80;;;20.03;38.20;97639.16;5083022;28;20518;-54
2023/06/16 00:13:57;;;;;;;4.43;3.83;;;18.10;47.80;;;20.02;38.19;97642.06;5066714;28;20040;-53
2023/06/16 00:16:26;;;;;;;4.38;3.78;;;18.00;47.70;;;19.96;38.43;97646.47;5082371;28;20047;-54
2023/06/16 00:18:57;;;;;;;4.38;3.80;;;17.90;48.10;;;19.93;38.46;97644.22;5079928;28;20044;-55
2023/06/16 00:21:35;;;;;;;4.00;3.45;;;17.80;48.30;;;19.89;38.60;97650.28;5078879;28;20048;-53
2023/06/16 00:24:07;;;;;;;5.53;4.47;;;17.80;48.60;;;19.86;38.63;97643.47;5068527;28;20036;-52
2023/06/16 00:26:36;;;;;;;6.30;3.88;;;17.80;48.40;;;19.84;38.51;97643.66;5077200;28;20066;-53
2023/06/16 00:29:05;;;;;;;5.63;5.05;;;17.80;47.90;;;19.85;38.52;97645.34;5079091;28;20048;-54
2023/06/16 00:31:33;;;;;;;4.43;3.80;;;17.90;47.50;;;19.85;38.34;97650.75;5052762;28;20048;-55
2023/06/16 00:34:01;;;;;;;6.93;4.00;;;17.90;47.40;;;19.86;38.37;97638.88;5059773;28;20067;-54
2023/06/16 00:36:29;;;;;;;4.47;3.83;;;18.00;47.20;;;19.85;38.43;97648.03;5051485;28;20053;-54
2023/06/16 00:38:58;;;;;;;5.07;4.18;;;18.00;47.20;;;19.85;38.40;97641.78;5060587;28;20045;-53
2023/06/16 00:41:26;;;;;;;4.93;4.53;;;17.90;47.50;;;19.85;38.48;97641.78;5052799;28;20033;-52
2023/06/16 00:43:55;;;;;;;4.72;3.80;;;17.90;47.70;;;19.83;38.45;97644.72;5054889;28;20048;-50
2023/06/16 00:46:27;;;;;;;5.80;3.60;;;17.90;47.80;;;19.79;38.71;97637.28;5056428;28;20045;-51
2023/06/16 00:48:56;;;;;;;5.80;4.22;;;17.80;48.10;;;19.75;38.60;97636.88;5056114;28;20395;-54
2023/06/16 00:51:27;;;;;;;4.78;4.15;;;17.80;47.90;;;19.72;38.55;97637.34;5081909;28;20391;-51
2023/06/16 00:53:55;;;;;;;5.95;4.32;;;17.70;48.30;;;19.66;38.92;97627.38;5081804;28;20420;-51
2023/06/16 00:56:23;;;;;;;6.20;4.15;;;17.60;48.70;;;19.61;39.02;97628.03;5054941;28;20059;-51
2023/06/16 00:58:53;;;;;;;5.47;4.85;;;17.60;48.70;;;19.60;38.92;97629.09;5049756;28;20071;-54
2023/06/16 01:01:24;;;;;;;4.32;3.90;;;17.60;48.60;;;19.55;39.01;97630.78;5043832;28;20048;-51
2023/06/16 01:03:53;;;;;;;5.88;3.97;;;17.50;48.90;;;19.52;39.11;97636.63;5055046;28;20059;-54
2023/06/16 01:06:50;;;;;;;4.97;4.40;;;17.40;49.50;;;19.45;39.04;97631.28;5055413;28;20037;-50
2023/06/16 01:09:35;;;;;;;5.20;4.47;;;17.40;49.30;;;19.39;39.30;97627.56;5051132;28;20055;-50
2023/06/16 01:12:37;;;;;;;6.25;3.70;;;17.30;50.20;;;19.33;39.42;97624.91;5050820;28;20032;-53
2023/06/16 01:15:13;;;;;;;5.47;4.20;;;17.20;50.00;;;19.34;39.55;97623.88;5048554;28;20040;-50
2023/06/16 01:17:45;;;;;;;4.97;3.92;;;17.30;49.80;;;19.31;39.49;97622.44;5054791;28;20048;-52
2023/06/16 01:20:25;;;;;;;4.72;3.70;;;17.20;49.90;;;19.30;39.54;97619.97;5054813;28;20519;-50
2023/06/16 01:23:08;;;;;;;4.40;3.85;;;17.20;49.50;;;19.25;39.50;97626.00;5081698;28;20044;-54
2023/06/16 01:25:38;;;;;;;5.50;4.07;;;17.20;50.50;;;19.24;39.79;97621.66;5055893;28;20116;-52
2023/06/16 01:28:07;;;;;;;5.50;4.13;;;17.20;50.00;;;19.22;39.69;97621.03;5062843;28;20037;-53
2023/06/16 01:30:36;;;;;;;4.95;4.00;;;17.20;49.80;;;19.17;39.78;97628.94;5062235;28;20052;-51
2023/06/16 01:33:04;;;;;;;4.30;3.30;;;17.10;50.20;;;19.12;39.77;97626.09;5038872;28;20053;-50
2023/06/16 01:35:34;;;;;;;6.75;4.28;;;17.00;50.00;;;19.10;39.79;97623.59;5039332;28;20415;-52
2023/06/16 01:38:02;;;;;;;4.43;4.03;;;17.10;50.10;;;19.12;39.94;97623.41;5062768;28;20510;-51
2023/06/16 01:40:30;;;;;;;4.25;3.47;;;17.10;50.00;;;19.07;40.05;97624.84;5080344;28;20207;-49
2023/06/16 01:43:00;;;;;;;4.22;3.75;;;17.10;50.40;;;19.04;40.50;97621.78;5063161;28;20045;-50
2023/06/16 01:45:29;;;;;;;4.35;3.75;;;17.00;50.30;;;19.05;40.10;97623.41;5081636;28;20036;-52
2023/06/16 01:47:57;;;;;;;5.40;4.40;;;17.10;50.20;;;19.05;40.19;97626.94;5057066;28;20040;-52
2023/06/16 01:50:32;;;;;;;5.25;3.60;;;17.10;50.10;;;19.04;40.23;97619.09;5041659;28;20040;-51
2023/06/16 01:52:59;;;;;;;4.75;3.88;;;17.10;50.60;;;19.03;40.08;97626.31;5062552;28;20420;-54
2023/06/16 01:55:27;;;;;;;5.70;4.00;;;17.00;50.10;;;19.01;39.91;97628.41;5054808;28;20052;-52
2023/06/16 01:57:56;;;;;;;4.60;3.60;;;17.00;49.70;;;19.00;39.79;97632.16;5056561;28;20052;-54
2023/06/16 02:00:36;;;;;;;5.18;4.00;;;17.00;49.70;;;18.97;40.01;97629.88;5060390;28;20496;-54
2023/06/16 02:03:17;;;;;;;5.70;4.15;;;17.00;50.80;;;18.95;40.07;97631.16;5055455;28;20480;-52
2023/06/16 02:05:50;;;;;;;6.10;4.32;;;16.90;50.30;;;18.95;39.89;97631.16;5034903;28;20041;-52
2023/06/16 02:08:23;;;;;;;4.83;3.43;;;17.00;49.50;;;18.99;39.83;97633.19;5054493;28;20044;-54
2023/06/16 02:10:51;;;;;;;5.38;4.32;;;17.10;49.30;;;19.04;39.90;97646.88;5064048;28;20420;-53
2023/06/16 02:13:19;;;;;;;4.85;3.92;;;17.20;49.10;;;19.10;40.02;97642.50;5060876;28;20056;-50
2023/06/16 02:15:47;;;;;;;4.47;4.05;;;17.20;49.40;;;19.11;40.00;97638.75;5054718;28;20049;-54
2023/06/16 02:18:27;;;;;;;5.43;4.10;;;17.20;49.50;;;19.13;40.14;97630.44;5060378;28;20040;-53
2023/06/16 02:20:55;;;;;;;4.38;3.97;;;17.20;49.60;;;19.16;39.82;97635.41;5082624;28;20040;-52
2023/06/16 02:23:24;;;;;;;4.35;3.88;;;17.30;49.20;;;19.19;39.77;97637.66;5084252;28;20031;-54
2023/06/16 02:25:52;;;;;;;6.10;4.25;;;17.40;48.90;;;19.22;39.87;97635.34;5056863;28;20048;-53
2023/06/16 02:28:20;;;;;;;5.05;4.07;;;17.40;49.00;;;19.25;39.84;97639.47;5060682;28;20055;-51
2023/06/16 02:30:48;;;;;;;4.63;3.78;;;17.50;49.00;;;19.26;39.76;97635.75;5054918;28;20107;-55
2023/06/16 02:33:17;;;;;;;5.53;3.70;;;17.40;48.70;;;19.26;39.70;97636.56;5060344;28;20388;-54
2023/06/16 02:35:44;;;;;;;5.00;4.20;;;17.50;48.60;;;19.25;39.78;97637.63;5061289;28;20526;-53
2023/06/16 02:38:13;;;;;;;9.30;4.50;;;17.50;48.90;;;19.26;39.90;97639.28;5080265;28;20039;-54
2023/06/16 02:40:41;;;;;;;6.40;4.43;;;17.50;49.00;;;19.24;39.98;97641.38;5054180;28;20109;-53
2023/06/16 02:43:09;;;;;;;5.50;4.65;;;17.40;49.20;;;19.22;40.00;97642.63;5045623;28;20048;-52
2023/06/16 02:45:37;;;;;;;5.70;4.57;;;17.30;49.50;;;19.18;40.09;97644.13;5054162;28;20040;-54
2023/06/16 02:48:05;;;;;;;7.07;5.05;;;17.20;49.80;;;19.13;40.22;97643.91;5071067;28;20500;-54
2023/06/16 02:50:33;;;;;;;7.05;5.28;;;17.10;50.50;;;19.02;40.48;97638.19;5053654;28;20049;-53
2023/06/16 02:53:05;;;;;;;6.80;4.63;;;16.90;50.80;;;18.97;40.51;97640.69;5053501;28;20056;-51
2023/06/16 02:55:32;;;;;;;7.00;4.22;;;16.90;51.10;;;18.87;40.75;97638.44;5053717;28;20055;-52
2023/06/16 02:58:00;;;;;;;4.47;3.97;;;16.80;51.60;;;18.80;40.94;97639.50;5079611;28;20051;-53
2023/06/16 03:00:28;;;;;;;7.80;4.90;;;16.70;52.00;;;18.74;41.29;97629.56;5053567;28;20055;-52
2023/06/16 03:03:16;;;;;;;6.30;4.40;;;16.60;52.00;;;18.70;41.03;97634.53;5039320;28;20032;-51
2023/06/16 03:05:50;;;;;;;6.95;4.30;;;16.60;52.10;;;18.68;41.02;97644.72;5053749;28;20040;-54
2023/06/16 03:08:20;;;;;;;4.05;3.60;;;16.60;51.80;;;18.64;41.09;97640.78;5057121;28;20056;-54
2023/06/16 03:10:47;;;;;;;5.47;3.88;;;16.60;51.60;;;18.63;40.97;97637.28;5049381;28;20464;-54
2023/06/16 03:13:22;;;;;;;5.03;4.18;;;16.60;51.50;;;18.62;41.04;97635.59;5053320;28;20052;-54
2023/06/16 03:15:52;;;;;;;4.85;3.95;;;16.60;51.40;;;18.61;41.19;97639.34;5052532;28;20049;-54
2023/06/16 03:18:20;;;;;;;5.72;4.07;;;16.70;51.50;;;18.62;41.16;97641.00;5052219;28;20064;-54
2023/06/16 03:20:47;;;;;;;5.60;3.97;;;16.70;51.60;;;18.61;41.05;97636.66;5052761;28;20048;-52
2023/06/16 03:23:21;;;;;;;5.05;4.22;;;16.70;51.20;;;18.63;41.00;97641.81;5052569;28;20052;-52
2023/06/16 03:25:49;;;;;;;5.53;3.47;;;16.70;51.20;;;18.61;41.13;97641.19;5051534;28;20428;-53
2023/06/16 03:28:21;;;;;;;5.32;4.68;;;16.70;51.10;;;18.60;41.12;97647.66;5058699;28;20412;-53
2023/06/16 03:30:52;;;;;;;8.00;4.25;;;16.60;51.60;;;18.58;41.25;97642.47;5053220;28;20393;-52
2023/06/16 03:33:34;;;;;;;5.70;4.20;;;16.60;51.40;;;18.60;41.17;97648.47;5064901;28;20046;-50
2023/06/16 03:36:02;;;;;;;5.35;3.67;;;16.70;51.20;;;18.60;41.08;97645.78;5079911;28;20051;-51
2023/06/16 03:38:40;;;;;;;5.80;4.00;;;16.70;51.20;;;18.62;41.05;97651.78;5052713;28;20079;-54
2023/06/16 03:41:08;;;;;;;3.63;3.25;;;16.70;51.00;;;18.61;41.07;97654.69;5052614;28;20084;-50
2023/06/16 03:43:36;;;;;;;5.22;4.40;;;16.70;51.10;;;18.62;40.97;97654.47;5035687;28;20416;-51
2023/06/16 03:46:03;;;;;;;7.32;5.07;;;16.70;50.80;;;18.63;40.98;97660.69;5054656;28;20048;-52
2023/06/16 03:48:31;;;;;;;6.20;4.65;;;16.80;50.60;;;18.62;41.01;97653.66;5058257;28;20040;-52
2023/06/16 03:51:02;;;;;;;6.30;4.47;;;16.80;50.60;;;18.64;41.15;97654.28;5054091;28;20052;-54
2023/06/16 03:53:29;;;;;;;5.78;4.65;;;16.80;50.70;;;18.63;40.98;97649.91;5036561;28;20501;-52
2023/06/16 03:55:58;;;;;;;6.80;5.45;;;16.80;50.80;;;18.60;41.11;97653.03;5072721;28;20049;-54
2023/06/16 03:58:28;;;;;;;4.72;3.80;;;16.70;51.00;;;18.59;41.21;97654.06;5051697;28;20056;-55
2023/06/16 04:00:56;;;;;;;5.05;4.22;;;16.70;51.10;;;18.60;40.99;97653.03;5053398;28;20049;-54
2023/06/16 04:03:28;;;;;;;4.60;4.20;;;16.80;50.90;;;18.60;41.29;97656.56;5059149;28;20052;-50
2023/06/16 04:05:56;;;;;;;5.53;4.25;;;16.80;51.30;;;18.57;41.59;97654.31;5053295;28;20072;-52
2023/06/16 04:08:24;;;;;;;6.75;4.40;;;16.70;51.80;;;18.54;41.50;97660.09;5082784;28;20062;-51
2023/06/16 04:10:57;;;;;;;6.93;4.30;;;16.70;51.60;;;18.56;41.52;97662.59;5055999;28;20055;-50
2023/06/16 04:13:26;;;;;;;5.60;4.38;;;16.70;51.60;;;18.55;41.32;97663.63;5039399;28;20111;-50
2023/06/16 04:15:54;;;;;;;4.10;3.67;;;16.70;51.60;;;18.53;41.66;97665.72;5049740;28;20111;-54
2023/06/16 04:18:22;;;;;;;5.30;4.20;;;16.60;52.10;;;18.52;41.89;97658.69;5052852;28;20044;-53
2023/06/16 04:20:50;;;;;;;6.53;4.80;;;16.60;52.10;;;18.53;41.90;97663.00;5078690;28;20052;-53
2023/06/16 04:23:18;;;;;;;6.32;4.30;;;16.70;52.30;;;18.55;41.85;97664.44;5032280;28;20037;-52
2023/06/16 04:25:47;;;;;;;8.95;5.00;;;16.70;52.20;;;18.56;41.92;97659.91;5064916;28;20045;-53
2023/06/16 04:28:15;;;;;;;4.70;4.18;;;16.70;52.30;;;18.55;41.96;97669.84;5054204;28;20036;-52
2023/06/16 04:30:50;;;;;;;6.13;4.22;;;16.70;52.30;;;18.58;42.01;97665.91;5056111;28;20049;-52
2023/06/16 04:33:22;;;;;;;6.93;4.93;;;16.70;52.20;;;18.61;41.97;97665.47;5044064;28;20037;-53
2023/06/16 04:35:50;;;;;;;5.25;4.13;;;16.80;52.20;;;18.64;41.90;97665.88;5052102;28;20051;-53
2023/06/16 04:38:19;;;;;;;5.85;4.80;;;16.90;52.00;;;18.68;41.93;97664.41;5064426;28;20056;-54
2023/06/16 04:40:49;;;;;;;6.53;4.10;;;16.90;51.90;;;18.72;41.85;97669.38;5055680;28;20401;-53
2023/06/16 04:43:18;;;;;;;5.93;4.45;;;17.00;51.50;;;18.75;41.83;97661.72;5055815;28;20041;-51
2023/06/16 04:45:47;;;;;;;4.65;4.15;;;17.10;51.50;;;18.79;41.75;97672.91;5047758;28;20049;-54
2023/06/16 04:48:15;;;;;;;5.30;4.70;;;17.10;51.30;;;18.84;41.55;97657.78;5057952;28;20060;-54
2023/06/16 04:50:46;;;;;;;8.25;5.10;;;17.20;50.80;;;18.87;41.63;97660.03;5061023;28;20439;-54
2023/06/16 04:53:14;;;;;;;9.05;4.22;;;17.20;50.60;;;18.93;41.35;97654.81;5057731;28;20056;-52
2023/06/16 04:55:42;;;;;;;6.47;4.22;;;17.30;50.30;;;18.99;41.01;97660.16;5067278;28;20055;-54
2023/06/16 04:58:10;;;;;;;4.57;3.70;;;17.40;49.80;;;19.05;40.79;97658.50;5083575;28;20063;-54
2023/06/16 05:00:37;;;;;;;9.73;4.22;;;17.50;49.30;;;19.08;40.58;97655.38;5082369;28;20044;-55
2023/06/16 05:03:05;;;;;;;5.57;4.18;;;17.60;48.90;;;19.12;40.43;97653.06;5055237;28;20401;-52
2023/06/16 05:05:33;;;;;;;5.57;4.53;;;17.60;48.50;;;19.17;40.16;97664.84;5054920;28;20295;-55
2023/06/16 05:08:00;;;;;;;9.27;4.38;;;17.60;48.20;;;19.22;40.25;97665.03;5054882;28;20420;-53
2023/06/16 05:10:28;;;;;;;5.68;4.03;;;17.70;48.30;;;19.26;39.92;97660.88;5055840;28;20045;-54
2023/06/16 05:12:58;;;;;;;7.43;4.07;;;17.70;48.00;;;19.28;39.77;97666.06;5055570;28;20052;-52
2023/06/16 05:15:25;;;;;;;5.75;4.93;;;17.80;47.90;;;19.27;39.89;97665.22;5069699;28;20040;-55
2023/06/16 05:17:53;;;;;;;5.60;4.35;;;17.80;47.80;;;19.28;39.93;97660.66;5042772;28;20052;-53
2023/06/16 05:20:21;;;;;;;6.68;4.15;;;17.80;47.90;;;19.34;39.97;97664.38;5055417;28;20055;-54
2023/06/16 05:22:48;;;;;;;7.03;5.55;;;17.90;47.80;;;19.40;39.79;97664.31;5055562;28;20049;-54
2023/06/16 05:25:16;;;;;;;6.15;4.43;;;17.90;47.50;;;19.43;39.67;97666.59;5055378;28;20500;-56
2023/06/16 05:27:44;;;;;;;7.80;4.72;;;18.00;47.30;;;19.49;39.76;97654.09;5054828;28;20051;-53
2023/06/16 05:30:12;;;;;;;5.85;4.28;;;18.10;47.50;;;19.53;39.60;97657.19;5038411;28;20048;-55
2023/06/16 05:32:40;;;;;;;5.45;4.57;;;18.10;47.40;;;19.54;39.52;97658.81;5054367;28;20504;-53
2023/06/16 05:35:08;;;;;;;6.40;4.20;;;18.10;46.90;;;19.57;39.46;97661.09;5055346;28;20048;-55
2023/06/16 05:37:38;;;;;;;4.88;4.32;;;18.20;47.00;;;19.64;39.46;97664.59;5054695;28;20040;-54
2023/06/16 05:40:06;;;;;;;5.35;4.03;;;18.20;46.70;;;19.66;39.40;97668.72;5052263;28;20056;-55
2023/06/16 05:42:36;;;;;;;5.15;4.10;;;18.30;46.80;;;19.75;39.36;97669.28;5055091;28;20048;-53
2023/06/16 05:45:04;;;;;;;5.60;5.00;;;18.30;46.60;;;19.72;39.29;97668.94;5053863;28;20047;-56
2023/06/16 05:47:32;;;;;;;4.85;4.38;;;18.30;46.40;;;19.74;39.09;97667.66;5054182;28;20404;-56
2023/06/16 05:50:00;;;;;;;5.07;4.32;;;18.30;46.40;;;19.74;39.16;97666.84;5063122;28;20049;-57
2023/06/16 05:52:30;;;;;;;4.63;4.03;;;18.40;46.40;;;19.73;39.04;97666.00;5084818;28;20040;-57
2023/06/16 05:54:58;;;;;;;5.53;4.15;;;18.40;46.20;;;19.77;38.94;97672.59;5057890;28;20048;-53
2023/06/16 05:57:37;;;;;;;4.63;4.05;;;18.40;46.20;;;19.83;38.49;97670.91;5065756;28;20496;-55
2023/06/16 06:00:06;;;;;;;5.05;3.80;;;18.50;45.40;;;19.84;38.43;97670.69;5054453;28;20468;-54
2023/06/16 06:02:40;;;;;;;7.63;4.32;;;18.50;44.90;;;19.87;38.37;97674.81;5083435;28;20052;-55
2023/06/16 06:05:20;;;;;;;6.22;4.30;;;18.50;45.40;;;19.93;38.63;97679.34;5056526;28;20049;-56
2023/06/16 06:07:48;;;;;;;6.03;4.28;;;18.60;45.50;;;19.99;38.71;97683.06;5059618;28;20531;-57
2023/06/16 06:10:16;;;;;;;6.40;4.53;;;18.60;45.60;;;19.92;38.65;97682.28;5056269;28;20049;-54
2023/06/16 06:12:44;;;;;;;6.50;4.40;;;18.60;45.90;;;20.00;38.44;97687.41;5060454;28;20062;-55
2023/06/16 06:15:12;;;;;;;7.43;4.32;;;18.70;45.60;;;20.06;38.31;97683.81;5063274;28;20408;-56
2023/06/16 06:17:42;;;;;;;4.93;3.88;;;18.80;45.20;;;20.10;38.08;97693.13;5060177;28;20048;-54
2023/06/16 06:20:11;;;;;;;5.25;4.40;;;18.70;44.00;;;20.10;37.68;97695.81;5054747;28;20064;-54
2023/06/16 06:22:40;;;;;;;5.80;4.57;;;18.80;44.00;;;20.16;37.46;97696.81;5060568;28;20048;-56
2023/06/16 06:25:10;;;;;;;4.55;4.03;;;18.80;43.60;;;20.14;37.72;97698.91;5054726;28;20051;-55
2023/06/16 06:27:38;;;;;;;7.18;4.40;;;18.80;43.90;;;20.08;37.12;97697.09;5057751;28;20045;-51
2023/06/16 06:30:06;;;;;;;5.78;4.15;;;18.80;42.80;;;20.15;37.71;97704.09;5054088;28;20052;-55
2023/06/16 06:32:35;;;;;;;6.72;4.43;;;18.90;43.90;;;20.24;37.66;97710.06;5054154;28;20051;-54
2023/06/16 06:35:03;;;;;;;4.60;3.95;;;18.90;43.60;;;20.22;37.28;97713.00;5062442;28;20055;-56
2023/06/16 06:37:31;;;;;;;5.75;4.13;;;19.00;43.50;;;20.23;36.91;97713.81;5053719;28;20049;-55
2023/06/16 06:40:00;;;;;;;6.78;4.50;;;19.00;42.60;;;20.17;36.98;97712.00;5054015;28;20051;-55
2023/06/16 06:42:29;;;;;;;7.15;4.30;;;18.90;42.90;;;20.16;36.88;97718.44;5083643;28;20032;-54
2023/06/16 06:44:57;;;;;;;8.05;5.40;;;18.90;42.80;;;20.23;36.88;97719.22;5058391;28;20045;-54
2023/06/16 06:47:25;;;;;;;5.30;4.25;;;19.00;43.10;;;20.10;37.34;97722.03;5055539;28;20045;-54
2023/06/16 06:49:58;;;;;;;5.43;4.35;;;19.00;43.10;;;20.23;37.09;97719.22;5053683;28;20088;-54
2023/06/16 06:52:26;;;;;;;4.88;4.25;;;19.00;43.30;;;20.35;37.10;97724.72;5079890;28;22242;-56
2023/06/16 06:54:53;;;;;;;5.47;4.93;;;19.10;42.50;;;20.45;36.90;97736.69;5078085;28;20066;-55
2023/06/16 06:57:21;;;;;;;6.47;4.40;;;19.20;42.50;;;20.44;36.17;97721.50;5080968;28;20490;-56
2023/06/16 06:59:49;;;;;;;5.72;4.78;;;19.20;40.90;;;20.42;35.82;97728.19;5079745;28;20049;-57
2023/06/16 07:02:16;;;;;;;5.47;4.97;;;19.20;40.80;;;20.49;35.51;97733.53;5081097;28;20432;-57
2023/06/16 07:04:44;;;;;;;5.40;4.70;;;19.30;40.70;;;20.49;35.54;97737.09;5083383;28;20051;-56
2023/06/16 07:07:13;;;;;;;8.82;4.15;;;19.30;40.00;;;20.58;35.71;97737.63;5081860;28;20043;-57
2023/06/16 07:09:40;;;;;;;4.57;3.95;;;19.30;40.90;;;20.66;36.23;97740.06;5053891;28;20037;-56
2023/06/16 07:12:09;;;;;;;8.50;5.13;;;19.40;41.70;;;20.70;36.16;97738.56;5079707;28;20385;-59
2023/06/16 07:14:37;;;;;;;12.45;4.55;;;19.50;41.80;;;20.77;36.28;97744.72;5083222;28;20092;-52
2023/06/16 07:17:05;;;;;;;6.55;4.80;;;19.70;42.00;;;20.84;35.86;97737.38;5082631;28;20047;-53
2023/06/16 07:19:32;;;;;;;4.93;3.67;;;19.70;41.40;;;20.93;35.30;97740.59;5056210;28;20054;-55
2023/06/16 07:22:00;;;;;;;4.30;3.85;;;19.70;40.60;;;20.92;34.91;97736.25;5083317;28;20036;-55
2023/06/16 07:24:28;;;;;;;6.15;4.10;;;19.80;39.00;;;21.01;34.78;97743.03;5055631;28;20044;-55
2023/06/16 07:26:56;;;;;;;6.28;4.05;;;19.80;39.70;;;21.10;35.37;97753.53;5082021;28;20044;-54
2023/06/16 07:29:33;;;;;;;7.43;4.82;;;19.90;40.60;;;21.13;35.40;97753.06;5080645;28;20510;-55
2023/06/16 07:32:00;;;;;;;5.85;4.55;;;19.90;40.20;;;21.11;35.53;97753.31;5078653;28;20040;-54
2023/06/16 07:34:28;;;;;;;5.38;4.07;;;19.90;41.00;;;21.15;34.79;97754.53;5081699;28;20499;-54
2023/06/16 07:36:56;;;;;;;4.75;3.90;;;20.00;40.00;;;21.22;35.14;97757.13;5058181;28;20045;-52
2023/06/16 07:39:24;;;;;;;5.28;4.20;;;20.00;40.80;;;21.26;35.62;97755.63;5054086;28;20531;-55
2023/06/16 07:41:52;;;;;;;9.40;4.50;;;20.10;41.10;;;21.30;35.64;97756.81;5082663;28;20531;-55
2023/06/16 07:44:19;;;;;;;6.72;4.55;;;20.20;41.30;;;21.28;35.43;97750.00;5081345;28;20191;-55
2023/06/16 07:46:47;;;;;;;6.03;4.32;;;20.20;40.80;;;;;;5078767;28;20075;-53
2023/06/16 07:49:14;;;;;;;5.72;4.28;;;20.30;40.90;;;21.46;35.67;97751.88;5078617;28;20049;-54
2023/06/16 07:51:42;;;;;;;5.55;4.38;;;20.30;41.20;;;21.43;35.15;97756.69;5082693;28;20048;-55
2023/06/16 07:54:11;;;;;;;4.35;3.95;;;20.40;39.90;;;21.52;35.07;97742.81;5082448;28;20127;-55
2023/06/16 07:56:40;;;;;;;4.43;3.58;;;20.50;39.50;;;21.61;34.66;97746.88;5044452;28;20045;-55
2023/06/16 07:59:08;;;;;;;9.00;4.93;;;20.50;39.60;;;21.65;34.78;97750.78;5078344;28;20056;-52
2023/06/16 08:01:36;;;;;;;5.15;4.28;;;20.60;39.90;;;21.72;35.43;97746.09;5079173;28;20040;-56
2023/06/16 08:04:03;;;;;;;6.88;3.75;;;20.60;40.30;;;21.79;34.75;97749.53;5082243;28;20044;-55
2023/06/16 08:06:31;;;;;;;6.00;3.42;;;20.70;40.00;;;21.86;34.21;97754.84;5059458;28;20044;-55
2023/06/16 08:08:59;;;;;;;4.50;3.55;;;20.80;39.00;;;21.92;33.97;97750.41;5085635;28;20048;-52
2023/06/16 08:11:27;;;;;;;5.07;3.63;;;20.80;38.30;;;21.92;33.76;97747.69;5086991;28;20408;-52
2023/06/16 08:13:55;;;;;;;6.07;4.10;;;20.90;37.60;;;21.95;33.89;97748.06;5086569;28;20043;-55
2023/06/16 08:16:23;;;;;;;4.40;3.90;;;21.00;38.40;;;22.09;33.65;97740.53;5084839;28;20044;-53
2023/06/16 08:18:55;;;;;;;7.00;3.92;;;21.10;37.80;;;22.16;33.86;97745.88;5082808;28;20415;-55
2023/06/16 08:21:23;;;;;;;5.30;3.63;;;21.20;38.20;;;22.21;33.83;97741.38;5084150;28;20040;-55
2023/06/16 08:23:52;;;;;;;5.88;4.00;;;21.20;38.00;;;22.28;32.13;97738.59;5084909;28;20040;-55
2023/06/16 08:26:20;;;;;;;8.07;3.80;;;21.30;36.00;;;22.35;32.06;97743.91;5085272;28;20110;-56
2023/06/16 08:28:47;;;;;;;6.00;4.43;;;21.30;35.90;;;22.42;32.55;97737.28;5082779;28;20036;-55
2023/06/16 08:31:15;;;;;;;5.47;4.55;;;21.40;36.70;;;22.47;33.25;97739.31;5056210;28;20045;-56
2023/06/16 08:33:42;;;;;;;5.97;3.90;;;21.50;37.50;;;22.44;31.28;97739.78;5067464;28;20040;-56
2023/06/16 08:36:10;;;;;;;7.32;3.25;;;21.60;33.90;;;22.55;29.55;97738.97;5074755;28;20048;-55
2023/06/16 08:38:39;;;;;;;4.30;3.50;;;21.70;32.10;;;22.60;29.93;97724.69;5064168;28;20056;-56
2023/06/16 08:41:10;;;;;;;4.40;3.30;;;21.70;31.80;;;22.67;29.69;97733.53;5067402;28;20063;-55
2023/06/16 08:43:38;;;;;;;5.85;3.47;;;21.70;33.50;;;22.71;28.65;97734.72;5045937;28;20045;-55
2023/06/16 08:46:08;;;;;;;6.88;3.58;;;21.80;29.70;;;22.77;28.69;97728.31;5045879;28;20044;-56
2023/06/16 08:48:37;;;;;;;8.07;4.65;;;21.80;31.00;;;22.83;29.49;97734.69;5056419;28;20060;-53
2023/06/16 08:51:05;;;;;;;8.05;3.85;;;21.80;32.00;;;22.88;28.89;97734.81;5057921;28;20396;-53
2023/06/16 08:53:35;;;;;;;4.80;3.53;;;21.90;31.30;;;22.94;28.56;97735.75;5039045;28;20059;-55
2023/06/16 08:56:07;;;;;;;7.20;3.70;;;21.90;31.00;;;23.01;28.80;97736.44;5057137;28;20053;-55
2023/06/16 08:58:37;;;;;;;5.45;3.40;;;22.00;31.40;;;23.02;27.40;97732.66;5060953;28;20037;-54
2023/06/16 09:01:05;;;;;;;7.53;3.58;;;22.10;29.00;;;23.04;28.39;97738.72;5057382;28;20067;-54
2023/06/16 09:03:33;;;;;;;7.82;4.05;;;22.10;31.00;;;23.03;28.36;97726.22;5038946;28;20071;-55
2023/06/16 09:06:02;;;;;;;5.22;3.78;;;22.30;30.40;;;23.12;28.20;97721.22;5053208;28;20596;-53
2023/06/16 09:08:29;;;;;;;5.00;3.88;;;22.30;30.00;;;23.19;28.47;97725.44;5071307;28;20040;-56
2023/06/16 09:10:57;;;;;;;6.30;4.07;;;22.30;31.40;;;23.14;27.74;97724.53;5073031;28;20264;-52
2023/06/16 09:13:27;;;;;;;6.70;3.75;;;22.30;29.80;;;23.17;27.29;97721.34;5071859;28;20052;-53
2023/06/16 09:15:56;;;;;;;5.45;3.58;;;22.30;29.20;;;23.23;27.65;97723.09;5073255;28;20048;-55
2023/06/16 09:18:36;;;;;;;8.43;3.92;;;22.30;29.60;;;23.31;27.63;97711.84;5081651;28;20043;-54
2023/06/16 09:21:08;;;;;;;8.52;3.85;;;22.40;29.50;;;23.36;27.77;97714.66;5082144;28;20040;-53
2023/06/16 09:23:36;;;;;;;4.15;3.58;;;22.40;30.20;;;23.38;27.01;97722.56;5083998;28;20048;-55
2023/06/16 09:26:13;;;;;;;5.30;3.55;;;22.60;29.00;;;23.43;27.09;97717.22;5084997;28;20036;-52
2023/06/16 09:28:44;;;;;;;7.18;3.40;;;22.60;28.80;;;23.44;27.16;97723.47;5054876;28;20055;-54
2023/06/16 09:31:15;;;;;;;7.70;4.05;;;22.70;29.70;;;23.57;27.14;97717.75;5085058;28;20415;-43
2023/06/16 09:33:42;;;;;;;4.72;4.22;;;22.80;29.30;;;23.61;26.99;97716.19;5059033;28;20032;-46
2023/06/16 09:36:10;;;;;;;5.28;3.45;;;22.80;29.30;;;23.62;26.61;97706.97;5084876;28;20040;-46
2023/06/16 09:38:38;;;;;;;6.18;3.83;;;22.80;29.20;;;23.68;26.74;97708.72;5082894;28;20048;-46
2023/06/16 09:41:15;;;;;;;5.53;3.72;;;22.80;29.10;;;23.71;26.46;97710.13;5081547;28;20040;-45
2023/06/16 09:43:44;;;;;;;4.85;3.58;;;22.80;28.40;;;23.78;26.74;97711.66;5059240;28;20040;-46
2023/06/16 09:46:13;;;;;;;7.00;4.20;;;22.90;29.30;;;23.82;25.98;97711.97;5084578;28;20047;-45
2023/06/16 09:48:51;;;;;;;6.55;3.83;;;22.90;28.20;;;23.80;25.72;97705.97;5058215;28;20045;-44
2023/06/16 09:51:23;;;;;;;6.38;3.85;;;22.90;27.80;;;23.76;25.73;97705.59;5084731;28;20040;-44
2023/06/16 09:53:51;;;;;;;5.45;3.70;;;22.80;28.40;;;23.77;26.07;97707.25;5068988;28;20040;-46
2023/06/16 09:56:19;;;;;;;4.70;3.63;;;22.90;28.50;;;23.73;25.58;97697.94;5084546;28;20048;-45
2023/06/16 09:58:48;;;;;;;6.70;4.13;;;22.90;28.20;;;23.85;25.98;97695.19;5058013;28;20040;-46
2023/06/16 10:01:19;;;;;;;6.78;3.85;;;22.90;28.70;;;23.85;25.77;97703.34;5084336;28;20040;-46
2023/06/16 10:03:50;;;;;;;6.63;3.80;;;22.90;28.40;;;23.85;25.88;97695.19;5058626;28;20044;-46
2023/06/16 10:06:20;;;;;;;5.82;4.38;;;22.90;28.40;;;23.92;25.41;97701.31;5059430;28;20047;-39
2023/06/16 10:08:48;;;;;;;4.65;3.72;;;23.10;27.70;;;24.05;25.10;97699.31;5045968;28;20044;-39
2023/06/16 10:11:18;;;;;;;10.43;4.05;;;23.20;27.40;;;24.10;25.18;97699.41;5054696;28;20048;-39
2023/06/16 10:13:53;;;;;;;7.50;4.00;;;23.30;27.50;;;24.17;25.56;97692.75;5054964;28;20032;-39
2023/06/16 10:16:28;;;;;;;6.22;3.78;;;23.30;27.90;;;24.17;25.28;97700.91;5080343;28;20040;-39
2023/06/16 10:19:02;;;;;;;5.55;4.05;;;23.50;27.60;;;24.27;25.11;97692.09;5069000;28;20036;-39
2023/06/16 10:21:31;;;;;;;5.13;4.00;;;23.50;27.20;;;24.32;25.20;97697.59;5058102;28;20500;-39
2023/06/16 10:24:02;;;;;;;6.90;4.45;;;23.50;27.60;;;24.29;25.08;97687.22;5084483;28;20051;-39
2023/06/16 10:26:33;;;;;;;5.40;4.30;;;23.50;27.70;;;24.41;25.20;97698.00;5038865;28;20041;-39
2023/06/16 10:29:02;;;;;;;5.30;4.70;;;23.50;27.80;;;24.34;25.07;97691.91;5076712;28;20063;-39
2023/06/16 10:31:30;;;;;;;4.78;3.40;;;23.50;27.20;;;24.46;24.88;97694.53;5064676;28;20423;-39